Time;durP1;ratioP1;P1;durP2;ratioP2;P2;SDS_P1;SDS_P2;PMS_P1;PMS_P2;Temp;Humidity;BMP_temperature;BMP_pressure;BME280_temperature;BME280_humidity;BME280_pressure;Samples;Min_cycle;Max_cycle;Signal;HPM_P1;HPM_P2
2021/11/20 07:36:14;;;;;;;;;12.67;10.67;;;;;9.52;66.62;102206.91;5867880;23;46072;-96
2021/11/20 07:38:46;;;;;;;;;17.33;11.67;;;;;10.55;66.39;102383.91;4889842;29;47428;-83
2021/11/20 07:41:13;;;;;;;;;15.33;11.00;;;;;10.56;66.64;102380.50;4877344;29;45571;-84
2021/11/20 07:43:38;;;;;;;;;15.33;11.67;;;;;10.59;66.51;102379.81;4876272;29;45598;-83
2021/11/20 07:46:07;;;;;;;;;15.67;14.00;;;;;10.61;66.79;102383.44;4877196;29;45774;-84
2021/11/20 07:48:35;;;;;;;;;13.00;12.00;;;;;10.60;66.61;102369.41;4877227;29;46272;-84
2021/11/20 07:51:01;;;;;;;;;15.67;13.00;;;;;10.66;66.50;102374.19;4878692;29;45586;-83
2021/11/20 07:53:27;;;;;;;;;13.67;11.00;;;;;10.69;66.54;102376.13;4875287;29;45447;-82
2021/11/20 07:55:52;;;;;;;;;11.67;9.00;;;;;10.67;66.54;102369.84;4890484;29;53653;-82
2021/11/20 07:58:19;;;;;;;;;11.67;11.33;;;;;10.70;66.42;102376.22;4875449;29;46357;-83
2021/11/20 08:00:45;;;;;;;;;16.00;12.00;;;;;10.71;66.45;102378.06;4876884;29;45538;-83
2021/11/20 08:03:13;;;;;;;;;14.00;12.67;;;;;10.77;66.44;102376.66;4880328;29;45318;-83
2021/11/20 08:05:39;;;;;;;;;23.00;16.67;;;;;10.77;66.23;102376.66;4878233;29;45895;-83
2021/11/20 08:08:05;;;;;;;;;23.33;19.00;;;;;10.75;66.37;102367.75;4875904;29;45693;-83
2021/11/20 08:10:32;;;;;;;;;12.33;11.00;;;;;10.83;66.34;102384.97;4878031;29;45481;-83
2021/11/20 08:12:58;;;;;;;;;20.33;16.33;;;;;10.83;66.36;102378.00;4875749;29;45651;-85
2021/11/20 08:15:25;;;;;;;;;16.00;14.00;;;;;10.82;66.40;102375.28;4878316;29;45453;-83
2021/11/20 08:17:50;;;;;;;;;18.67;15.00;;;;;10.88;66.53;102374.78;4877847;29;45434;-83
2021/11/20 08:20:18;;;;;;;;;17.33;14.33;;;;;10.91;66.26;102375.00;4875517;29;45519;-83
2021/11/20 08:22:44;;;;;;;;;18.33;14.33;;;;;10.92;66.21;102377.75;4875822;29;45436;-83
2021/11/20 08:25:14;;;;;;;;;18.67;15.67;;;;;10.94;66.08;102376.13;4881713;29;45578;-83
2021/11/20 08:27:39;;;;;;;;;17.67;14.67;;;;;10.92;65.97;102367.25;4889781;29;45552;-83
2021/11/20 08:30:07;;;;;;;;;15.67;15.33;;;;;10.98;65.68;102374.63;4885138;29;45439;-83
2021/11/20 08:32:33;;;;;;;;;20.33;15.67;;;;;10.99;66.03;102363.31;4886306;29;45540;-83
2021/11/20 08:35:01;;;;;;;;;17.67;15.67;;;;;10.99;65.70;102367.66;4887049;29;45414;-83
2021/11/20 08:37:27;;;;;;;;;17.00;16.00;;;;;11.00;65.29;102356.34;4885917;29;46557;-83
2021/11/20 08:39:54;;;;;;;;;16.33;14.33;;;;;10.98;65.06;102352.72;4886977;29;45492;-83
2021/11/20 08:42:20;;;;;;;;;16.00;13.33;;;;;10.99;65.68;102351.91;4880737;29;45566;-83
2021/11/20 08:44:46;;;;;;;;;17.67;10.67;;;;;11.01;65.56;102352.91;4887878;29;45527;-83
2021/11/20 08:47:11;;;;;;;;;20.33;14.33;;;;;10.99;65.15;102333.50;4881081;29;46515;-82
2021/11/20 08:49:37;;;;;;;;;18.67;15.33;;;;;11.03;64.96;102340.81;4874950;29;45395;-83
2021/11/20 08:52:03;;;;;;;;;21.00;14.33;;;;;11.01;65.72;102329.25;4858722;29;45417;-82
2021/11/20 08:54:28;;;;;;;;;17.00;15.00;;;;;11.06;65.53;102323.53;4876622;29;45410;-83
2021/11/20 08:56:57;;;;;;;;;18.67;17.67;;;;;11.12;65.31;102328.28;4865581;29;46386;-83
2021/11/20 08:59:25;;;;;;;;;18.33;14.33;;;;;11.12;64.83;102325.66;4872473;29;45489;-83
2021/11/20 09:01:58;;;;;;;;;18.67;14.67;;;;;11.15;65.33;102318.00;4875300;29;45580;-83
2021/11/20 09:04:39;;;;;;;;;24.00;17.33;;;;;11.14;64.98;102308.28;4875022;29;45548;-83
2021/11/20 09:07:24;;;;;;;;;12.33;12.33;;;;;11.21;65.48;102314.84;4877036;29;45579;-82
2021/11/20 09:09:59;;;;;;;;;21.00;15.33;;;;;11.24;65.01;102308.91;4860389;29;45383;-83
2021/11/20 09:12:28;;;;;;;;;16.33;13.67;;;;;11.26;65.24;102308.19;4876148;29;45441;-86
2021/11/20 09:15:02;;;;;;;;;19.33;14.33;;;;;11.30;65.14;102317.22;4871715;29;45648;-85
2021/11/20 09:17:27;;;;;;;;;18.33;14.33;;;;;11.32;64.50;102307.69;4874263;29;45743;-85
2021/11/20 09:19:53;;;;;;;;;15.00;11.33;;;;;11.30;64.48;102306.69;4889143;29;45592;-85
2021/11/20 09:22:19;;;;;;;;;20.67;14.00;;;;;11.32;64.44;102294.56;4876827;29;45442;-83
2021/11/20 09:24:46;;;;;;;;;14.67;11.33;;;;;11.37;63.90;102308.94;4874388;29;45562;-84
2021/11/20 09:27:13;;;;;;;;;15.67;11.33;;;;;11.39;64.21;102296.78;4877637;29;45562;-86
2021/11/20 09:29:40;;;;;;;;;17.67;14.33;;;;;11.39;64.22;102301.16;4873147;29;45551;-84
2021/11/20 09:32:07;;;;;;;;;17.33;15.00;;;;;11.39;63.27;102296.78;4875845;29;45458;-84
2021/11/20 09:34:32;;;;;;;;;19.33;17.00;;;;;11.35;63.75;102300.03;4875774;29;45462;-85
2021/11/20 09:36:58;;;;;;;;;16.67;13.33;;;;;11.38;63.88;102288.81;4874879;29;45356;-85
2021/11/20 09:39:28;;;;;;;;;16.33;13.00;;;;;11.42;64.05;102297.78;4876057;29;45509;-84
2021/11/20 09:42:15;;;;;;;;;16.00;15.00;;;;;11.46;63.89;102300.75;4876715;29;45614;-86
2021/11/20 09:44:45;;;;;;;;;14.00;13.33;;;;;11.49;63.69;102294.78;4874577;29;45410;-84
2021/11/20 09:47:16;;;;;;;;;13.00;10.67;;;;;11.50;63.34;102296.59;4874567;29;47441;-84
2021/11/20 09:49:45;;;;;;;;;17.67;13.33;;;;;11.54;63.46;102289.84;4874592;29;45380;-84
2021/11/20 09:52:11;;;;;;;;;15.33;12.33;;;;;11.59;63.47;102289.34;4862759;29;45511;-84
2021/11/20 09:54:39;;;;;;;;;16.33;13.33;;;;;11.60;62.99;102278.00;4876398;29;45387;-84
2021/11/20 09:57:05;;;;;;;;;10.67;9.67;;;;;11.66;63.81;102287.09;4875955;29;45421;-84
2021/11/20 10:00:03;;;;;;;;;15.00;12.00;;;;;11.67;63.34;102291.56;4876186;29;45370;-84
2021/11/20 10:02:35;;;;;;;;;11.33;10.67;;;;;11.70;63.49;102276.88;4874463;29;45353;-85
2021/11/20 10:05:13;;;;;;;;;13.00;11.33;;;;;11.78;63.62;102280.00;4874850;29;45628;-85
2021/11/20 10:07:48;;;;;;;;;12.00;11.00;;;;;11.84;62.59;102269.91;4875642;29;45572;-85
2021/11/20 10:10:36;;;;;;;;;12.67;12.67;;;;;11.88;63.10;102276.25;4874602;29;45469;-85
2021/11/20 10:13:11;;;;;;;;;17.67;13.33;;;;;11.95;62.86;102270.59;4859686;29;45566;-84
2021/11/20 10:15:54;;;;;;;;;16.33;14.00;;;;;11.99;62.72;102254.97;4875827;29;45345;-84
2021/11/20 10:18:34;;;;;;;;;13.33;13.00;;;;;12.07;62.76;102256.38;4890679;29;47521;-84
2021/11/20 10:21:08;;;;;;;;;15.33;12.33;;;;;12.16;62.60;102257.00;4878274;29;45308;-84
2021/11/20 10:23:51;;;;;;;;;14.00;12.00;;;;;12.22;62.79;102250.28;4892059;29;45387;-84
2021/11/20 10:26:54;;;;;;;;;12.67;12.67;;;;;12.23;62.30;102246.84;4876651;29;45527;-84
2021/11/20 10:29:44;;;;;;;;;17.33;15.67;;;;;12.24;62.10;102243.44;4873755;29;45510;-84
2021/11/20 10:32:14;;;;;;;;;17.00;16.00;;;;;12.22;61.92;102252.94;4887324;28;46076;-84
2021/11/20 10:34:46;;;;;;;;;17.00;14.00;;;;;12.20;62.01;102246.66;4875484;29;45441;-84
2021/11/20 10:37:26;;;;;;;;;15.00;13.67;;;;;12.17;62.27;102242.09;4890794;28;45563;-86
2021/11/20 10:40:06;;;;;;;;;24.00;18.00;;;;;12.17;61.96;102240.41;4875319;29;45314;-85
2021/11/20 10:42:41;;;;;;;;;16.67;15.00;;;;;12.16;61.96;102235.94;4874150;29;45931;-86
2021/11/20 10:45:15;;;;;;;;;17.33;14.67;;;;;12.16;62.22;102235.03;4875518;29;45604;-86
2021/11/20 10:47:53;;;;;;;;;16.00;16.00;;;;;12.11;61.96;102226.78;4874410;29;45436;-85
2021/11/20 10:50:37;;;;;;;;;18.33;16.00;;;;;12.15;61.96;102227.94;4876201;29;45590;-83
2021/11/20 10:53:21;;;;;;;;;15.33;13.67;;;;;12.14;61.47;102227.03;4873635;29;45625;-87
2021/11/20 10:56:10;;;;;;;;;14.67;13.00;;;;;12.10;62.33;102216.19;4873639;29;45475;-85
2021/11/20 10:59:32;;;;;;;;;21.00;18.00;;;;;12.13;61.97;102213.75;4880610;29;45441;-85
2021/11/20 11:02:24;;;;;;;;;15.33;14.67;;;;;12.09;62.04;102206.47;4819056;29;47770;-85
2021/11/20 11:05:10;;;;;;;;;21.67;15.00;;;;;12.11;62.05;102189.06;4838157;29;45738;-86
2021/11/20 11:07:48;;;;;;;;;16.67;15.67;;;;;12.09;61.87;102188.03;4854049;29;45896;-86
2021/11/20 11:10:20;;;;;;;;;18.33;16.33;;;;;12.05;61.52;102190.50;4845022;29;45405;-86
2021/11/20 11:12:58;;;;;;;;;17.67;16.33;;;;;12.10;62.11;102185.53;4829078;29;46355;-87
2021/11/20 11:15:43;;;;;;;;;17.33;16.67;;;;;12.06;62.08;102188.78;4841602;29;45780;-86
2021/11/20 11:18:28;;;;;;;;;18.67;16.33;;;;;12.03;61.98;102170.16;4802950;29;45453;-86
2021/11/20 11:21:07;;;;;;;;;19.67;18.00;;;;;12.00;61.82;102176.16;4806041;29;45502;-87
2021/11/20 11:24:05;;;;;;;;;22.33;19.33;;;;;11.93;61.78;102159.03;4801263;29;46512;-95
2021/11/20 11:26:35;;;;;;;;;23.00;22.00;;;;;11.92;61.88;102156.31;4790642;29;45935;-90
2021/11/20 11:29:14;;;;;;;;;21.00;17.33;;;;;11.90;62.13;102150.06;4800791;29;45495;-85
2021/11/20 11:31:40;;;;;;;;;21.00;20.67;;;;;11.88;62.18;102143.81;4811652;29;45517;-87
2021/11/20 11:34:30;;;;;;;;;22.00;18.00;;;;;11.85;62.50;102134.88;4843128;29;45850;-88
2021/11/20 11:37:01;;;;;;;;;24.00;22.33;;;;;11.87;62.47;102129.72;4828949;29;45582;-88
2021/11/20 11:39:33;;;;;;;;;25.33;21.00;;;;;11.86;62.06;102130.53;4825698;29;45703;-88
2021/11/20 11:42:02;;;;;;;;;22.67;19.33;;;;;11.85;62.58;102124.34;4840550;29;45630;-88
2021/11/20 11:44:49;;;;;;;;;19.00;17.33;;;;;11.81;62.15;102111.84;4842177;29;46480;-88
2021/11/20 11:47:45;;;;;;;;;19.33;17.33;;;;;11.88;62.15;102112.22;4828892;29;45492;-88
2021/11/20 11:50:29;;;;;;;;;18.00;17.33;;;;;11.89;62.19;102114.94;4837911;29;45530;-88
2021/11/20 11:52:57;;;;;;;;;17.33;16.67;;;;;11.90;61.98;102106.25;4827416;29;45470;-88
2021/11/20 11:55:45;;;;;;;;;16.00;15.00;;;;;11.90;62.02;102107.97;4841475;29;47287;-89
2021/11/20 11:58:29;;;;;;;;;22.67;22.67;;;;;11.89;62.50;102100.88;4860946;29;45544;-86
2021/11/20 12:01:00;;;;;;;;;20.00;18.33;;;;;11.91;62.24;102105.41;4848098;29;47804;-87
2021/11/20 12:03:26;;;;;;;;;21.67;19.00;;;;;11.91;62.64;102094.88;4859599;29;45556;-86
2021/11/20 12:06:18;;;;;;;;;21.33;18.33;;;;;11.90;61.88;102095.72;4891754;29;46614;-86
2021/11/20 12:08:43;;;;;;;;;21.00;18.00;;;;;11.91;62.25;102092.25;4891505;29;45587;-86
2021/11/20 12:11:17;;;;;;;;;19.00;16.00;;;;;11.87;62.15;102074.47;4888510;29;45578;-87
2021/11/20 12:13:54;;;;;;;;;19.67;17.33;;;;;11.91;61.98;102083.44;4849764;29;45553;-87
2021/11/20 12:16:22;;;;;;;;;23.33;22.00;;;;;11.92;62.09;102083.56;4889386;29;48250;-89
2021/11/20 12:18:59;;;;;;;;;20.33;19.00;;;;;11.90;62.10;102081.66;4852755;29;45778;-88
2021/11/20 12:21:39;;;;;;;;;23.00;20.00;;;;;11.88;62.20;102063.13;4856947;29;45358;-88
2021/11/20 12:24:07;;;;;;;;;21.33;21.33;;;;;11.88;62.11;102063.13;4861218;29;45448;-88
2021/11/20 12:26:57;;;;;;;;;18.33;17.33;;;;;11.88;62.12;102059.59;4895121;28;48289;-87
2021/11/20 12:30:03;;;;;;;;;20.67;16.00;;;;;11.88;62.10;102057.84;4860029;29;45657;-87
2021/11/20 12:32:53;;;;;;;;;22.33;21.00;;;;;11.91;62.04;102062.41;4863254;29;45693;-88
2021/11/20 12:35:30;;;;;;;;;26.00;20.67;;;;;11.89;61.99;102056.16;4855983;29;45592;-87
2021/11/20 12:38:35;;;;;;;;;22.67;21.33;;;;;11.83;61.62;102052.31;4876107;29;47516;-87
2021/11/20 12:41:26;;;;;;;;;19.00;16.67;;;;;11.82;62.02;102055.78;4856646;29;45338;-89
2021/11/20 12:44:20;;;;;;;;;22.00;20.33;;;;;11.79;62.22;102057.31;4858016;29;45450;-88
2021/11/20 12:47:18;;;;;;;;;22.67;21.33;;;;;11.80;62.15;102062.66;4858013;29;45478;-88
2021/11/20 12:50:00;;;;;;;;;24.67;19.33;;;;;11.76;61.95;102051.84;4859621;29;45520;-87
2021/11/20 12:52:51;;;;;;;;;18.00;17.00;;;;;11.75;62.23;102047.41;4870896;29;45344;-88
2021/11/20 12:55:35;;;;;;;;;21.67;20.00;;;;;11.73;62.21;102039.41;4860209;29;45609;-90
2021/11/20 12:58:23;;;;;;;;;28.00;23.33;;;;;11.69;62.47;102030.44;4862176;29;45741;-86
2021/11/20 13:00:54;;;;;;;;;23.00;19.33;;;;;11.71;62.30;102030.53;4841746;29;46671;-87
2021/11/20 13:03:19;;;;;;;;;25.00;23.00;;;;;11.70;62.35;102032.25;4874752;29;45428;-88
2021/11/20 13:05:55;;;;;;;;;24.67;21.33;;;;;11.68;62.36;102019.81;4860665;29;45451;-87
2021/11/20 13:08:37;;;;;;;;;21.33;21.33;;;;;11.70;62.48;102010.31;4874387;29;45635;-88
2021/11/20 13:11:27;;;;;;;;;20.00;19.00;;;;;11.72;62.44;102008.69;4865052;29;46360;-89
2021/11/20 13:14:37;;;;;;;;;24.33;21.33;;;;;11.71;62.31;101998.97;4861134;29;45632;-89
2021/11/20 13:17:13;;;;;;;;;23.67;19.67;;;;;11.71;62.33;101989.34;4860440;29;45723;-88
2021/11/20 13:19:51;;;;;;;;;24.00;23.00;;;;;11.70;62.51;101986.66;4864870;29;45424;-88
2021/11/20 13:22:25;;;;;;;;;23.33;22.67;;;;;11.68;62.20;101983.00;4863643;29;45428;-89
2021/11/20 13:24:57;;;;;;;;;23.67;19.33;;;;;11.70;62.39;101981.38;4852115;29;45446;-88
2021/11/20 13:27:38;;;;;;;;;25.67;24.33;;;;;11.68;62.23;101976.00;4869780;29;45443;-87
2021/11/20 13:30:08;;;;;;;;;25.33;20.33;;;;;11.68;62.35;101972.47;4858897;29;45504;-88
2021/11/20 13:32:33;;;;;;;;;27.33;23.33;;;;;11.68;62.45;101967.22;4867283;29;47420;-89
2021/11/20 13:34:59;;;;;;;;;24.67;21.33;;;;;11.69;62.01;101971.66;4869330;29;45362;-87
2021/11/20 13:37:25;;;;;;;;;27.33;25.33;;;;;11.63;62.25;101959.03;4863948;29;45386;-87
2021/11/20 13:39:51;;;;;;;;;23.67;21.33;;;;;11.65;62.11;101960.03;4856449;29;45435;-87
2021/11/20 13:42:16;;;;;;;;;32.25;25.00;;;;;11.59;61.69;101950.09;4865027;29;45475;-86
2021/11/20 13:44:42;;;;;;;;;24.00;23.50;;;;;11.60;62.35;101957.13;4859758;29;45558;-87
2021/11/20 13:47:09;;;;;;;;;22.00;18.75;;;;;11.59;62.23;101952.72;4859067;29;45574;-87
2021/11/20 13:49:35;;;;;;;;;24.67;21.33;;;;;11.56;61.97;101951.59;4860466;29;45531;-86
2021/11/20 13:52:15;;;;;;;;;33.33;30.33;;;;;11.53;62.37;101944.44;4856011;29;47351;-86
2021/11/20 13:54:41;;;;;;;;;28.50;24.75;;;;;11.48;62.79;101932.72;4856958;29;45489;-86
2021/11/20 13:57:14;;;;;;;;;33.25;25.50;;;;;11.46;62.48;101922.13;4884917;29;45390;-87
2021/11/20 13:59:40;;;;;;;;;30.50;30.00;;;;;11.50;62.31;101929.38;4863129;29;45546;-87
2021/11/20 14:02:08;;;;;;;;;25.00;20.25;;;;;11.45;62.86;101922.94;4882567;29;48261;-87
2021/11/20 14:04:39;;;;;;;;;33.50;29.00;;;;;11.45;62.37;101922.94;4880944;29;45600;-86
2021/11/20 14:07:07;;;;;;;;;37.25;31.50;;;;;11.42;62.16;101921.81;4861672;29;45371;-86
2021/11/20 14:09:39;;;;;;;;;37.00;31.50;;;;;11.36;62.40;101931.19;4874572;29;45703;-85
2021/11/20 14:12:08;;;;;;;;;41.75;34.50;;;;;11.33;63.08;101928.34;4862595;29;45882;-86
2021/11/20 14:14:34;;;;;;;;;36.75;32.00;;;;;11.36;63.09;101918.03;4859768;29;45770;-86
2021/11/20 14:17:13;;;;;;;;;47.00;35.00;;;;;11.38;63.04;101926.91;4877657;29;45629;-86
2021/11/20 14:19:38;;;;;;;;;37.75;29.00;;;;;11.40;63.34;101914.78;4861258;29;45432;-86
2021/11/20 14:22:06;;;;;;;;;35.50;28.75;;;;;11.35;63.17;101902.16;4871251;29;48162;-87
2021/11/20 14:24:39;;;;;;;;;44.50;34.50;;;;;11.37;62.90;101909.31;4862148;29;45433;-86
2021/11/20 14:27:06;;;;;;;;;30.50;24.25;;;;;11.34;62.75;101903.88;4866531;29;45490;-87
2021/11/20 14:29:34;;;;;;;;;42.75;35.00;;;;;11.34;63.37;101895.09;4867564;29;45483;-86
2021/11/20 14:32:06;;;;;;;;;44.00;35.00;;;;;11.29;62.73;101894.78;4865175;29;45465;-86
2021/11/20 14:34:37;;;;;;;;;52.50;38.50;;;;;11.26;63.93;101890.25;4866446;29;45406;-86
2021/11/20 14:37:32;;;;;;;;;47.00;37.25;;;;;11.28;63.01;101891.28;4858265;29;45528;-86
2021/11/20 14:40:03;;;;;;;;;47.50;38.50;;;;;11.23;63.11;101882.22;4840396;29;45555;-86
2021/11/20 14:42:31;;;;;;;;;47.75;37.00;;;;;11.26;63.69;101886.75;4864690;29;45685;-86
2021/11/20 14:45:14;;;;;;;;;47.50;36.25;;;;;11.28;63.88;101895.63;4872973;29;45592;-86
2021/11/20 14:47:50;;;;;;;;;48.25;38.00;;;;;11.28;63.75;101887.75;4867677;29;45398;-86
2021/11/20 14:50:30;;;;;;;;;47.00;38.00;;;;;11.27;63.00;101878.94;4865762;29;45497;-86
2021/11/20 14:53:09;;;;;;;;;42.00;34.25;;;;;11.24;63.22;101877.84;4862451;29;47428;-86
2021/11/20 14:55:40;;;;;;;;;27.00;26.50;;;;;11.25;62.83;101892.81;4867249;29;45972;-85
2021/11/20 14:58:14;;;;;;;;;37.00;32.75;;;;;11.17;63.42;101888.00;4874526;29;45540;-86
2021/11/20 15:00:41;;;;;;;;;39.25;30.75;;;;;11.19;63.87;101890.69;4866156;29;45788;-85
2021/11/20 15:03:06;;;;;;;;;39.25;33.50;;;;;11.15;63.92;101881.75;4866055;29;45536;-85
2021/11/20 15:05:31;;;;;;;;;41.25;33.25;;;;;11.17;63.43;101877.47;4859866;29;45786;-86
2021/11/20 15:07:57;;;;;;;;;39.50;31.00;;;;;11.14;63.45;101868.47;4862907;29;45666;-86
2021/11/20 15:10:22;;;;;;;;;39.50;35.75;;;;;11.10;63.38;101848.09;4863104;29;45604;-85
2021/11/20 15:12:49;;;;;;;;;44.00;36.25;;;;;11.08;63.25;101840.09;4863370;29;45629;-87
2021/11/20 15:15:15;;;;;;;;;33.50;29.25;;;;;11.08;63.75;101845.34;4874038;29;45704;-85
2021/11/20 15:17:40;;;;;;;;;39.50;32.25;;;;;11.10;62.88;101840.22;4857108;29;45536;-86
2021/11/20 15:20:10;;;;;;;;;33.00;31.50;;;;;11.05;63.15;101846.13;4856596;29;49746;-85
2021/11/20 15:22:35;;;;;;;;;40.50;30.00;;;;;10.99;64.18;101840.47;4863455;29;45706;-88
2021/11/20 15:25:01;;;;;;;;;37.75;28.00;;;;;11.05;63.59;101847.81;4867828;29;45315;-86
2021/11/20 15:27:26;;;;;;;;;38.50;29.75;;;;;11.05;63.77;101847.81;4862208;29;45317;-84
2021/11/20 15:29:52;;;;;;;;;35.00;30.50;;;;;10.97;64.17;101831.59;4866930;29;45521;-88
2021/11/20 15:32:17;;;;;;;;;34.25;25.50;;;;;10.99;63.52;101840.47;4861808;29;47036;-86
2021/11/20 15:34:42;;;;;;;;;42.75;28.75;;;;;10.99;63.49;101839.56;4866802;29;45492;-88
2021/11/20 15:37:08;;;;;;;;;39.75;34.00;;;;;10.92;63.62;101831.31;4868912;29;45395;-85
2021/11/20 15:39:34;;;;;;;;;42.50;31.00;;;;;10.93;63.80;101842.69;4870372;29;45429;-85
2021/11/20 15:41:59;;;;;;;;;37.50;32.50;;;;;10.86;63.93;101835.25;4878388;29;45602;-85
2021/11/20 15:44:25;;;;;;;;;31.25;29.00;;;;;10.91;63.96;101834.75;4879841;29;45489;-86
2021/11/20 15:46:51;;;;;;;;;35.25;31.00;;;;;10.85;63.42;101834.34;4885722;29;45523;-86
2021/11/20 15:49:17;;;;;;;;;32.75;30.00;;;;;10.86;63.22;101837.88;4891645;29;45527;-86
2021/11/20 15:51:42;;;;;;;;;34.25;31.25;;;;;10.81;63.25;101822.75;4881833;29;46770;-87
2021/11/20 15:54:08;;;;;;;;;34.25;29.75;;;;;10.81;63.59;101825.41;4884659;29;45463;-89
2021/11/20 15:56:34;;;;;;;;;42.75;34.00;;;;;10.80;63.54;101830.53;4883545;29;45633;-87
2021/11/20 15:58:59;;;;;;;;;34.75;30.75;;;;;10.76;63.43;101825.91;4885663;29;45895;-87
2021/11/20 16:01:25;;;;;;;;;33.50;31.00;;;;;10.73;63.64;101824.00;4878221;29;45768;-85
2021/11/20 16:03:51;;;;;;;;;44.25;34.00;;;;;10.73;63.35;101829.25;4879157;29;45388;-85
2021/11/20 16:06:17;;;;;;;;;32.25;26.50;;;;;10.64;63.91;101821.72;4882042;29;45391;-87
2021/11/20 16:08:42;;;;;;;;;31.50;27.50;;;;;10.64;63.21;101826.06;4881752;29;45722;-91
2021/11/20 16:11:08;;;;;;;;;35.00;30.75;;;;;10.61;64.10;101834.66;4881264;29;47023;-87
2021/11/20 16:13:35;;;;;;;;;30.75;26.50;;;;;10.59;64.05;101820.53;4881049;29;45642;-87
2021/11/20 16:16:01;;;;;;;;;26.25;22.50;;;;;10.61;64.18;101827.69;4892514;29;45406;-88
2021/11/20 16:18:27;;;;;;;;;39.50;30.75;;;;;10.61;63.15;101829.41;4885714;29;45341;-89
2021/11/20 16:20:53;;;;;;;;;34.00;29.00;;;;;10.53;63.45;101826.28;4879145;29;45516;-90
2021/11/20 16:23:18;;;;;;;;;43.50;33.25;;;;;10.48;63.57;101823.34;4891030;29;45780;-91
2021/11/20 16:25:43;;;;;;;;;34.75;30.25;;;;;10.48;63.70;101825.06;4880915;29;45937;-87
2021/11/20 16:28:09;;;;;;;;;31.75;25.25;;;;;10.43;63.85;101826.50;4884577;29;45464;-88
2021/11/20 16:30:35;;;;;;;;;39.50;31.00;;;;;10.38;64.39;101815.72;4881736;29;45580;-91
2021/11/20 16:33:00;;;;;;;;;40.00;34.25;;;;;10.39;63.51;101807.91;4867143;29;47707;-90
2021/11/20 16:35:25;;;;;;;;;36.00;31.00;;;;;10.41;63.85;101818.50;4876791;29;45427;-86
2021/11/20 16:37:51;;;;;;;;;33.25;28.25;;;;;10.40;64.01;101814.06;4868220;29;45362;-87
2021/11/20 16:40:17;;;;;;;;;35.75;34.00;;;;;10.36;64.04;101807.72;4865013;29;48126;-85
2021/11/20 16:42:43;;;;;;;;;34.75;30.50;;;;;10.34;63.48;101803.19;4855543;29;45874;-85
2021/11/20 16:45:12;;;;;;;;;34.00;31.25;;;;;10.28;63.94;101798.47;4863860;29;45211;-88
2021/11/20 16:47:37;;;;;;;;;36.00;31.25;;;;;10.21;63.83;101791.91;4864987;29;45515;-86
2021/11/20 16:50:14;;;;;;;;;38.00;29.00;;;;;10.22;64.06;101801.59;4863390;29;45506;-90
2021/11/20 16:52:40;;;;;;;;;41.00;34.50;;;;;10.18;64.13;101794.31;4870084;29;45509;-87
2021/11/20 16:55:06;;;;;;;;;43.50;36.00;;;;;10.16;64.68;101789.00;4869930;29;45442;-90
2021/11/20 16:57:32;;;;;;;;;45.25;36.25;;;;;10.20;64.59;101781.31;4864991;29;45577;-84
2021/11/20 16:59:58;;;;;;;;;38.25;31.75;;;;;10.26;65.30;101785.22;4862339;29;47467;-86
2021/11/20 17:02:24;;;;;;;;;38.50;32.25;;;;;10.28;64.94;101782.72;4865268;29;45862;-86
2021/11/20 17:04:49;;;;;;;;;43.75;34.75;;;;;10.27;65.19;101770.41;4862254;29;45536;-89
2021/11/20 17:07:15;;;;;;;;;44.75;35.00;;;;;10.27;64.92;101773.94;4845767;29;45470;-86
2021/11/20 17:09:42;;;;;;;;;39.00;34.50;;;;;10.31;65.13;101771.50;4867119;29;45577;-87
2021/11/20 17:12:08;;;;;;;;;37.25;32.50;;;;;10.28;64.41;101767.84;4858053;29;45776;-86
2021/11/20 17:14:34;;;;;;;;;39.00;31.75;;;;;10.29;63.84;101771.41;4856046;29;45575;-88
2021/11/20 17:17:01;;;;;;;;;29.75;28.00;;;;;10.28;64.69;101772.22;4852601;29;45281;-88
2021/11/20 17:19:27;;;;;;;;;45.25;33.50;;;;;10.27;63.96;101768.69;4858993;29;46547;-86
2021/11/20 17:21:52;;;;;;;;;41.25;33.25;;;;;10.28;64.83;101774.84;4852974;29;46077;-87
2021/11/20 17:24:18;;;;;;;;;36.75;33.75;;;;;10.34;64.31;101771.69;4865141;29;45411;-85
2021/11/20 17:26:43;;;;;;;;;44.50;35.25;;;;;10.32;64.23;101761.09;4863465;29;45592;-87
2021/11/20 17:29:09;;;;;;;;;40.25;34.25;;;;;10.30;64.25;101765.34;4860988;29;46325;-89
2021/11/20 17:31:36;;;;;;;;;44.50;34.25;;;;;10.26;63.98;101761.63;4839699;29;45517;-89
2021/11/20 17:34:02;;;;;;;;;37.75;34.25;;;;;10.27;64.44;101760.81;4863077;29;45473;-88
2021/11/20 17:36:27;;;;;;;;;39.00;33.25;;;;;10.30;64.88;101762.72;4864132;29;45285;-89
2021/11/20 17:38:53;;;;;;;;;34.00;31.00;;;;;10.33;64.78;101767.25;4882934;28;47899;-88
2021/11/20 17:41:18;;;;;;;;;41.75;33.75;;;;;10.34;64.82;101758.56;4893917;28;45576;-89
2021/11/20 17:43:43;;;;;;;;;47.25;35.00;;;;;10.38;64.39;101763.22;4904232;28;45820;-89
2021/11/20 17:46:09;;;;;;;;;43.75;37.00;;;;;10.40;64.72;101753.72;4894591;29;45292;-89
2021/11/20 17:48:35;;;;;;;;;44.25;35.00;;;;;10.41;63.89;101745.00;4881097;29;48086;-92
2021/11/20 17:51:00;;;;;;;;;50.00;34.00;;;;;10.33;63.65;101739.31;4899534;29;45391;-85
2021/11/20 17:53:26;;;;;;;;;40.25;34.75;;;;;10.32;64.27;101744.44;4891999;29;45663;-88
2021/11/20 17:55:52;;;;;;;;;54.75;37.50;;;;;10.33;64.02;101741.94;4887421;28;45431;-87
2021/11/20 17:58:17;;;;;;;;;47.50;36.50;;;;;10.28;63.76;101733.75;4891927;29;48223;-87
2021/11/20 18:00:50;;;;;;;;;45.25;35.25;;;;;10.25;63.46;101745.78;4893485;29;45730;-90
2021/11/20 18:03:16;;;;;;;;;48.00;36.50;;;;;10.25;64.01;101746.69;4896263;29;45671;-88
2021/11/20 18:05:42;;;;;;;;;37.00;30.50;;;;;10.22;64.62;101737.72;4898352;28;45649;-87
2021/11/20 18:08:10;;;;;;;;;44.25;32.00;;;;;10.25;65.04;101735.28;4901204;28;47271;-86
2021/11/20 18:10:35;;;;;;;;;42.75;33.50;;;;;10.25;64.87;101730.03;4892386;29;45566;-89
2021/11/20 18:13:01;;;;;;;;;35.50;32.00;;;;;10.32;64.62;101734.84;4897468;28;45505;-91
2021/11/20 18:15:27;;;;;;;;;38.50;35.00;;;;;10.31;64.33;101719.03;4901327;28;45525;-91
2021/11/20 18:17:53;;;;;;;;;37.50;30.50;;;;;10.35;64.31;101740.31;4892101;29;47432;-86
2021/11/20 18:20:18;;;;;;;;;41.00;34.00;;;;;10.35;63.97;101736.78;4890456;29;45637;-92
2021/11/20 18:22:43;;;;;;;;;48.75;36.25;;;;;10.35;64.04;101735.06;4877617;29;45433;-90
2021/11/20 18:25:10;;;;;;;;;44.25;34.00;;;;;10.33;64.26;101720.94;4898428;28;45403;-90
2021/11/20 18:27:37;;;;;;;;;43.25;34.75;;;;;10.38;63.87;101721.22;4885872;29;46962;-95
2021/11/20 18:30:06;;;;;;;;;42.50;36.50;;;;;10.35;64.63;101713.16;4901538;29;45592;-91
2021/11/20 18:32:32;;;;;;;;;41.25;34.00;;;;;10.38;64.63;101713.34;4882856;29;45442;-90
2021/11/20 18:34:57;;;;;;;;;51.00;38.75;;;;;10.43;64.50;101701.41;4878358;28;45489;-94
2021/11/20 18:37:22;;;;;;;;;51.00;38.25;;;;;10.42;64.13;101704.84;4890627;28;48313;-89
2021/11/20 18:39:48;;;;;;;;;39.50;33.50;;;;;10.44;63.88;101720.66;4889436;29;45481;-90
2021/11/20 18:42:14;;;;;;;;;44.25;37.50;;;;;10.38;64.04;101703.75;4894526;29;45621;-88
2021/11/20 18:44:40;;;;;;;;;43.75;35.00;;;;;10.39;64.13;101707.25;4892950;29;45875;-90
2021/11/20 18:47:06;;;;;;;;;45.75;36.25;;;;;10.32;63.54;101698.13;4876260;29;47189;-89
2021/11/20 18:49:33;;;;;;;;;42.50;36.50;;;;;10.41;63.43;101710.00;4890478;29;45591;-88
2021/11/20 18:51:58;;;;;;;;;44.50;36.75;;;;;10.35;64.09;101706.19;4876296;29;45541;-88
2021/11/20 18:54:25;;;;;;;;;45.25;36.50;;;;;10.39;63.96;101708.19;4899699;29;45403;-94
2021/11/20 18:56:52;;;;;;;;;44.00;35.50;;;;;10.38;64.27;101702.84;4893270;28;47449;-93
2021/11/20 18:59:17;;;;;;;;;41.50;37.00;;;;;10.42;64.00;101706.53;4904089;28;45395;-92
2021/11/20 19:01:43;;;;;;;;;48.75;37.25;;;;;10.31;64.69;101691.03;4899368;28;45491;-89
2021/11/20 19:04:08;;;;;;;;;49.75;37.00;;;;;10.41;64.02;101696.88;4895483;29;45427;-92